sensor_id;sensor_type;location;lat;lon;timestamp;pressure;altitude;pressure_sealevel;temperature;humidity
46199;BME280;31928;52.104;10.030;2023-08-06T01:05:17;99620.66;;;22.62;51.18
46199;BME280;31928;52.104;10.030;2023-08-06T13:18:10;99225.59;;;28.70;37.98
46199;BME280;31928;52.104;10.030;2023-08-06T13:20:38;99222.41;;;28.68;39.03
46199;BME280;31928;52.104;10.030;2023-08-06T13:23:08;99225.88;;;28.65;37.96
46199;BME280;31928;52.104;10.030;2023-08-06T13:25:35;99225.88;;;28.65;38.54
46199;BME280;31928;52.104;10.030;2023-08-06T13:28:03;99219.63;;;28.68;39.30
46199;BME280;31928;52.104;10.030;2023-08-06T13:30:30;99234.81;;;28.74;37.62
46199;BME280;31928;52.104;10.030;2023-08-06T13:32:57;99227.81;;;28.80;37.34
46199;BME280;31928;52.104;10.030;2023-08-06T13:35:24;99222.03;;;28.85;37.53
46199;BME280;31928;52.104;10.030;2023-08-06T13:37:51;99224.88;;;28.88;36.96
46199;BME280;31928;52.104;10.030;2023-08-06T13:40:18;99218.53;;;28.88;36.50
46199;BME280;31928;52.104;10.030;2023-08-06T13:42:44;99215.44;;;28.89;36.70
46199;BME280;31928;52.104;10.030;2023-08-06T13:45:11;99212.03;;;28.96;38.62
46199;BME280;31928;52.104;10.030;2023-08-06T13:47:38;99211.91;;;29.08;35.49
46199;BME280;31928;52.104;10.030;2023-08-06T13:50:05;99210.63;;;29.20;36.81
46199;BME280;31928;52.104;10.030;2023-08-06T13:52:32;99210.94;;;29.34;37.10
46199;BME280;31928;52.104;10.030;2023-08-06T13:54:58;99211.94;;;29.45;35.69
46199;BME280;31928;52.104;10.030;2023-08-06T13:57:25;99209.06;;;29.57;35.05
46199;BME280;31928;52.104;10.030;2023-08-06T13:59:52;99208.41;;;29.64;33.93
46199;BME280;31928;52.104;10.030;2023-08-06T14:02:18;99217.09;;;29.66;34.95
46199;BME280;31928;52.104;10.030;2023-08-06T14:04:45;99211.94;;;29.64;35.08
46199;BME280;31928;52.104;10.030;2023-08-06T14:07:12;99215.44;;;29.61;34.80
46199;BME280;31928;52.104;10.030;2023-08-06T14:09:38;99218.13;;;29.58;35.90
46199;BME280;31928;52.104;10.030;2023-08-06T14:12:06;99212.97;;;29.56;35.02
46199;BME280;31928;52.104;10.030;2023-08-06T14:14:33;99219.66;;;29.55;34.84
46199;BME280;31928;52.104;10.030;2023-08-06T14:17:00;99223.56;;;29.54;34.60
46199;BME280;31928;52.104;10.030;2023-08-06T14:19:28;99208.16;;;29.53;34.51
46199;BME280;31928;52.104;10.030;2023-08-06T14:21:55;99218.41;;;29.53;34.71
46199;BME280;31928;52.104;10.030;2023-08-06T14:24:22;99214.78;;;29.49;35.48
46199;BME280;31928;52.104;10.030;2023-08-06T14:26:48;99214.34;;;29.47;35.27
46199;BME280;31928;52.104;10.030;2023-08-06T14:29:15;99219.38;;;29.41;35.63
46199;BME280;31928;52.104;10.030;2023-08-06T14:31:42;99207.91;;;29.39;35.44
46199;BME280;31928;52.104;10.030;2023-08-06T14:34:09;99206.38;;;29.42;35.30
46199;BME280;31928;52.104;10.030;2023-08-06T14:36:35;99216.31;;;29.46;35.19
46199;BME280;31928;52.104;10.030;2023-08-06T14:39:02;99221.91;;;29.50;34.62
46199;BME280;31928;52.104;10.030;2023-08-06T14:41:29;99217.63;;;29.52;34.23
46199;BME280;31928;52.104;10.030;2023-08-06T14:43:55;99217.34;;;29.57;34.44
46199;BME280;31928;52.104;10.030;2023-08-06T14:46:22;99219.38;;;29.60;34.07
46199;BME280;31928;52.104;10.030;2023-08-06T14:48:49;99211.19;;;29.67;33.11
46199;BME280;31928;52.104;10.030;2023-08-06T14:51:16;99215.69;;;29.75;33.24
46199;BME280;31928;52.104;10.030;2023-08-06T14:53:46;99210.31;;;29.82;34.47
46199;BME280;31928;52.104;10.030;2023-08-06T14:56:12;99205.31;;;29.87;33.55
46199;BME280;31928;52.104;10.030;2023-08-06T14:58:39;99220.81;;;29.92;34.05
46199;BME280;31928;52.104;10.030;2023-08-06T15:01:06;99224.81;;;29.94;34.28
46199;BME280;31928;52.104;10.030;2023-08-06T15:03:32;99222.38;;;29.93;35.35
46199;BME280;31928;52.104;10.030;2023-08-06T15:06:00;99224.00;;;29.94;34.65
46199;BME280;31928;52.104;10.030;2023-08-06T15:08:26;99225.91;;;29.90;34.58
46199;BME280;31928;52.104;10.030;2023-08-06T15:10:53;99229.41;;;29.87;34.49
46199;BME280;31928;52.104;10.030;2023-08-06T15:13:20;99237.13;;;29.81;34.75
46199;BME280;31928;52.104;10.030;2023-08-06T15:15:47;99237.03;;;29.75;34.95
46199;BME280;31928;52.104;10.030;2023-08-06T15:18:15;99235.28;;;29.67;35.14
46199;BME280;31928;52.104;10.030;2023-08-06T15:20:42;99242.63;;;29.59;34.93
46199;BME280;31928;52.104;10.030;2023-08-06T15:23:08;99245.25;;;29.52;36.02
46199;BME280;31928;52.104;10.030;2023-08-06T15:25:35;99243.50;;;29.44;35.03
46199;BME280;31928;52.104;10.030;2023-08-06T15:28:02;99252.78;;;29.36;35.25
46199;BME280;31928;52.104;10.030;2023-08-06T15:30:28;99258.16;;;29.29;35.56
46199;BME280;31928;52.104;10.030;2023-08-06T15:32:55;99257.97;;;29.22;35.83
46199;BME280;31928;52.104;10.030;2023-08-06T15:35:22;99267.28;;;29.14;35.76
46199;BME280;31928;52.104;10.030;2023-08-06T15:37:49;99258.38;;;29.06;36.39
46199;BME280;31928;52.104;10.030;2023-08-06T15:40:15;99267.69;;;28.98;35.92
46199;BME280;31928;52.104;10.030;2023-08-06T15:42:42;99254.09;;;28.89;35.85
46199;BME280;31928;52.104;10.030;2023-08-06T15:45:09;99258.63;;;28.82;36.46
46199;BME280;31928;52.104;10.030;2023-08-06T15:47:35;99262.41;;;28.74;37.00
46199;BME280;31928;52.104;10.030;2023-08-06T15:50:07;99251.97;;;28.67;36.66
46199;BME280;31928;52.104;10.030;2023-08-06T15:52:35;99258.91;;;28.61;36.73
46199;BME280;31928;52.104;10.030;2023-08-06T15:55:02;99268.22;;;28.57;36.81
46199;BME280;31928;52.104;10.030;2023-08-06T15:57:34;99273.75;;;28.57;36.52
46199;BME280;31928;52.104;10.030;2023-08-06T16:00:02;99272.69;;;28.46;37.08
46199;BME280;31928;52.104;10.030;2023-08-06T16:02:29;99281.94;;;28.38;35.86
46199;BME280;31928;52.104;10.030;2023-08-06T16:04:56;99278.56;;;28.29;37.38
46199;BME280;31928;52.104;10.030;2023-08-06T16:07:24;99279.88;;;28.20;36.57
46199;BME280;31928;52.104;10.030;2023-08-06T16:09:52;99280.03;;;28.11;36.67
46199;BME280;31928;52.104;10.030;2023-08-06T16:12:19;99284.91;;;28.02;37.79
46199;BME280;31928;52.104;10.030;2023-08-06T16:14:46;99279.16;;;27.95;38.76
46199;BME280;31928;52.104;10.030;2023-08-06T16:17:13;99288.88;;;27.90;39.29
46199;BME280;31928;52.104;10.030;2023-08-06T16:19:40;99293.47;;;27.86;39.57
46199;BME280;31928;52.104;10.030;2023-08-06T16:22:07;99288.22;;;27.81;38.70
46199;BME280;31928;52.104;10.030;2023-08-06T16:24:34;99292.13;;;27.80;38.52
46199;BME280;31928;52.104;10.030;2023-08-06T16:27:04;99295.22;;;27.78;39.62
46199;BME280;31928;52.104;10.030;2023-08-06T16:29:30;99297.53;;;27.76;38.64
46199;BME280;31928;52.104;10.030;2023-08-06T16:31:57;99292.38;;;27.75;38.23
46199;BME280;31928;52.104;10.030;2023-08-06T16:34:24;99292.25;;;27.71;39.06
46199;BME280;31928;52.104;10.030;2023-08-06T16:36:50;99302.06;;;27.69;39.15
46199;BME280;31928;52.104;10.030;2023-08-06T16:39:18;99300.34;;;27.64;38.90
46199;BME280;31928;52.104;10.030;2023-08-06T16:41:46;99298.63;;;27.60;40.78
46199;BME280;31928;52.104;10.030;2023-08-06T16:44:13;99295.28;;;27.54;39.75
46199;BME280;31928;52.104;10.030;2023-08-06T16:46:40;99304.25;;;27.51;40.81
46199;BME280;31928;52.104;10.030;2023-08-06T16:49:06;99309.63;;;27.48;40.80
46199;BME280;31928;52.104;10.030;2023-08-06T16:51:33;99307.59;;;27.45;41.29
46199;BME280;31928;52.104;10.030;2023-08-06T16:53:59;99304.72;;;27.41;41.74
46199;BME280;31928;52.104;10.030;2023-08-06T16:56:27;99304.63;;;27.38;41.33
46199;BME280;31928;52.104;10.030;2023-08-06T16:58:54;99302.56;;;27.35;41.26
46199;BME280;31928;52.104;10.030;2023-08-06T17:01:20;99312.66;;;27.31;40.72
46199;BME280;31928;52.104;10.030;2023-08-06T17:03:47;99307.03;;;27.27;41.12
46199;BME280;31928;52.104;10.030;2023-08-06T17:06:15;99316.38;;;27.23;41.07
46199;BME280;31928;52.104;10.030;2023-08-06T17:08:43;99306.38;;;27.19;41.09
46199;BME280;31928;52.104;10.030;2023-08-06T17:11:09;99315.22;;;27.12;40.90
46199;BME280;31928;52.104;10.030;2023-08-06T17:13:36;99310.41;;;27.09;41.13
46199;BME280;31928;52.104;10.030;2023-08-06T17:16:03;99311.81;;;27.03;40.94
46199;BME280;31928;52.104;10.030;2023-08-06T17:18:30;99319.13;;;26.99;40.78
46199;BME280;31928;52.104;10.030;2023-08-06T17:20:59;99318.69;;;26.97;41.16
46199;BME280;31928;52.104;10.030;2023-08-06T17:23:27;99326.22;;;26.88;41.57
46199;BME280;31928;52.104;10.030;2023-08-06T17:25:54;99325.97;;;26.81;41.00
46199;BME280;31928;52.104;10.030;2023-08-06T17:28:21;99328.97;;;26.76;39.96
46199;BME280;31928;52.104;10.030;2023-08-06T17:30:48;99328.72;;;26.69;40.46
46199;BME280;31928;52.104;10.030;2023-08-06T17:33:14;99331.69;;;26.65;40.07
46199;BME280;31928;52.104;10.030;2023-08-06T17:35:44;99342.00;;;26.56;40.20
46199;BME280;31928;52.104;10.030;2023-08-06T17:38:11;99338.69;;;26.50;41.59
46199;BME280;31928;52.104;10.030;2023-08-06T17:40:38;99339.25;;;26.44;41.83
46199;BME280;31928;52.104;10.030;2023-08-06T17:43:05;99336.38;;;26.40;42.03
46199;BME280;31928;52.104;10.030;2023-08-06T17:45:32;99336.25;;;26.37;42.12
46199;BME280;31928;52.104;10.030;2023-08-06T17:47:59;99336.13;;;26.33;42.14
46199;BME280;31928;52.104;10.030;2023-08-06T17:50:25;99332.09;;;26.31;41.08
46199;BME280;31928;52.104;10.030;2023-08-06T17:52:52;99335.53;;;26.28;41.40
46199;BME280;31928;52.104;10.030;2023-08-06T17:55:19;99335.72;;;26.23;41.21
46199;BME280;31928;52.104;10.030;2023-08-06T17:57:45;99336.28;;;26.16;41.59
46199;BME280;31928;52.104;10.030;2023-08-06T18:00:12;99350.22;;;26.11;41.97
46199;BME280;31928;52.104;10.030;2023-08-06T18:02:39;99374.38;;;26.06;43.61
46199;BME280;31928;52.104;10.030;2023-08-06T18:05:06;99372.53;;;25.98;39.94
46199;BME280;31928;52.104;10.030;2023-08-06T18:07:32;99367.44;;;25.88;40.50
46199;BME280;31928;52.104;10.030;2023-08-06T18:09:59;99350.44;;;25.74;42.85
46199;BME280;31928;52.104;10.030;2023-08-06T18:12:26;99349.06;;;25.60;42.06
46199;BME280;31928;52.104;10.030;2023-08-06T18:14:52;99360.28;;;25.46;41.85
46199;BME280;31928;52.104;10.030;2023-08-06T18:17:19;99361.34;;;25.34;42.45
46199;BME280;31928;52.104;10.030;2023-08-06T18:19:46;99356.47;;;25.19;43.08
46199;BME280;31928;52.104;10.030;2023-08-06T18:22:12;99354.78;;;25.06;43.56
46199;BME280;31928;52.104;10.030;2023-08-06T18:24:39;99369.94;;;24.95;43.75
46199;BME280;31928;52.104;10.030;2023-08-06T18:27:06;99370.31;;;24.85;44.35
46199;BME280;31928;52.104;10.030;2023-08-06T18:29:32;99369.09;;;24.74;45.08
46199;BME280;31928;52.104;10.030;2023-08-06T18:32:00;99370.91;;;24.62;45.68
46199;BME280;31928;52.104;10.030;2023-08-06T18:34:26;99365.63;;;24.48;46.64
46199;BME280;31928;52.104;10.030;2023-08-06T18:36:53;99370.94;;;24.36;46.80
46199;BME280;31928;52.104;10.030;2023-08-06T18:39:20;99374.66;;;24.23;47.42
46199;BME280;31928;52.104;10.030;2023-08-06T18:41:46;99378.09;;;24.12;47.86
46199;BME280;31928;52.104;10.030;2023-08-06T18:44:13;99402.25;;;24.02;48.80
46199;BME280;31928;52.104;10.030;2023-08-06T18:46:39;99392.44;;;23.92;49.13
46199;BME280;31928;52.104;10.030;2023-08-06T18:49:06;99390.97;;;23.86;49.28
46199;BME280;31928;52.104;10.030;2023-08-06T18:51:33;99385.69;;;23.81;49.64
46199;BME280;31928;52.104;10.030;2023-08-06T18:54:00;99382.94;;;23.73;50.56
46199;BME280;31928;52.104;10.030;2023-08-06T18:56:26;99383.72;;;23.65;50.26
46199;BME280;31928;52.104;10.030;2023-08-06T18:58:53;99382.59;;;23.58;50.18
46199;BME280;31928;52.104;10.030;2023-08-06T19:01:20;99389.19;;;23.48;50.82
46199;BME280;31928;52.104;10.030;2023-08-06T19:03:46;99401.53;;;23.37;50.65
46199;BME280;31928;52.104;10.030;2023-08-06T19:06:14;99404.44;;;23.24;51.39
46199;BME280;31928;52.104;10.030;2023-08-06T19:08:41;99398.91;;;23.15;51.33
46199;BME280;31928;52.104;10.030;2023-08-06T19:11:08;99403.56;;;23.06;50.84
46199;BME280;31928;52.104;10.030;2023-08-06T19:13:34;99412.00;;;22.96;51.04
46199;BME280;31928;52.104;10.030;2023-08-06T19:16:01;99415.84;;;22.87;50.93
46199;BME280;31928;52.104;10.030;2023-08-06T19:18:28;99424.00;;;22.79;50.83
46199;BME280;31928;52.104;10.030;2023-08-06T19:20:55;99432.47;;;22.69;50.96
46199;BME280;31928;52.104;10.030;2023-08-06T19:23:23;99428.56;;;22.61;51.59
46199;BME280;31928;52.104;10.030;2023-08-06T19:25:54;99429.50;;;22.57;51.78
46199;BME280;31928;52.104;10.030;2023-08-06T19:28:21;99443.78;;;22.54;51.76
46199;BME280;31928;52.104;10.030;2023-08-06T19:30:49;99441.19;;;22.49;51.40
46199;BME280;31928;52.104;10.030;2023-08-06T19:33:15;99448.09;;;22.46;51.88
46199;BME280;31928;52.104;10.030;2023-08-06T19:35:48;99438.78;;;22.47;50.89
46199;BME280;31928;52.104;10.030;2023-08-06T19:38:16;99460.09;;;22.37;51.89
46199;BME280;31928;52.104;10.030;2023-08-06T19:40:43;99453.44;;;22.30;52.35
46199;BME280;31928;52.104;10.030;2023-08-06T19:43:10;99450.63;;;22.21;52.60
46199;BME280;31928;52.104;10.030;2023-08-06T19:45:37;99457.84;;;22.17;52.85
46199;BME280;31928;52.104;10.030;2023-08-06T19:48:05;99457.94;;;22.12;53.24
46199;BME280;31928;52.104;10.030;2023-08-06T19:50:33;99452.09;;;22.05;53.23
46199;BME280;31928;52.104;10.030;2023-08-06T19:53:00;99456.56;;;22.01;53.44
46199;BME280;31928;52.104;10.030;2023-08-06T19:55:27;99452.84;;;21.97;53.36
46199;BME280;31928;52.104;10.030;2023-08-06T19:57:53;99457.94;;;21.90;53.43
46199;BME280;31928;52.104;10.030;2023-08-06T20:00:20;99456.94;;;21.86;53.56
46199;BME280;31928;52.104;10.030;2023-08-06T20:02:46;99450.75;;;21.81;53.71
46199;BME280;31928;52.104;10.030;2023-08-06T20:05:13;99463.72;;;21.75;53.73
46199;BME280;31928;52.104;10.030;2023-08-06T20:07:40;99458.88;;;21.73;54.31
46199;BME280;31928;52.104;10.030;2023-08-06T20:10:07;99462.72;;;21.72;54.57
46199;BME280;31928;52.104;10.030;2023-08-06T20:12:34;99459.47;;;21.70;54.15
46199;BME280;31928;52.104;10.030;2023-08-06T20:15:01;99457.88;;;21.69;54.17
46199;BME280;31928;52.104;10.030;2023-08-06T20:17:27;99459.00;;;21.68;54.16
46199;BME280;31928;52.104;10.030;2023-08-06T20:19:54;99456.88;;;21.65;54.33
46199;BME280;31928;52.104;10.030;2023-08-06T20:22:21;99458.31;;;21.62;54.21
46199;BME280;31928;52.104;10.030;2023-08-06T20:24:47;99464.03;;;21.61;54.17
46199;BME280;31928;52.104;10.030;2023-08-06T20:27:14;99461.94;;;21.58;53.76
46199;BME280;31928;52.104;10.030;2023-08-06T20:29:41;99468.00;;;21.55;54.21
46199;BME280;31928;52.104;10.030;2023-08-06T20:32:07;99462.63;;;21.50;54.10
46199;BME280;31928;52.104;10.030;2023-08-06T20:34:34;99462.72;;;21.45;54.50
46199;BME280;31928;52.104;10.030;2023-08-06T20:37:01;99468.59;;;21.38;54.76
46199;BME280;31928;52.104;10.030;2023-08-06T20:39:28;99471.13;;;21.35;54.70
46199;BME280;31928;52.104;10.030;2023-08-06T20:41:54;99479.91;;;21.32;54.99
46199;BME280;31928;52.104;10.030;2023-08-06T20:44:29;99477.28;;;21.27;55.26
46199;BME280;31928;52.104;10.030;2023-08-06T20:47:01;99474.06;;;21.25;55.01
46199;BME280;31928;52.104;10.030;2023-08-06T20:49:27;99488.81;;;21.24;55.68
46199;BME280;31928;52.104;10.030;2023-08-06T20:51:54;99490.44;;;21.25;55.88
46199;BME280;31928;52.104;10.030;2023-08-06T20:54:21;99486.56;;;21.26;55.18
46199;BME280;31928;52.104;10.030;2023-08-06T20:56:48;99487.09;;;21.28;55.58
46199;BME280;31928;52.104;10.030;2023-08-06T20:59:15;99496.88;;;21.29;55.28
46199;BME280;31928;52.104;10.030;2023-08-06T21:01:41;99486.78;;;21.29;55.25
46199;BME280;31928;52.104;10.030;2023-08-06T21:04:08;99496.28;;;21.32;55.95
46199;BME280;31928;52.104;10.030;2023-08-06T21:06:37;99498.38;;;21.35;55.35
46199;BME280;31928;52.104;10.030;2023-08-06T21:09:04;99496.66;;;21.39;55.27
46199;BME280;31928;52.104;10.030;2023-08-06T21:11:33;99496.88;;;21.42;55.31
46199;BME280;31928;52.104;10.030;2023-08-06T21:14:00;99506.28;;;21.50;56.03
46199;BME280;31928;52.104;10.030;2023-08-06T21:16:27;99511.66;;;21.55;55.12
46199;BME280;31928;52.104;10.030;2023-08-06T21:18:54;99506.09;;;21.60;54.75
46199;BME280;31928;52.104;10.030;2023-08-06T21:21:21;99508.22;;;21.63;54.59
46199;BME280;31928;52.104;10.030;2023-08-06T21:23:48;99533.28;;;21.65;54.64
46199;BME280;31928;52.104;10.030;2023-08-06T21:26:14;99523.94;;;21.66;54.80
46199;BME280;31928;52.104;10.030;2023-08-06T21:28:43;99518.50;;;21.66;54.71
46199;BME280;31928;52.104;10.030;2023-08-06T21:31:10;99527.81;;;21.65;54.33
46199;BME280;31928;52.104;10.030;2023-08-06T21:33:39;99526.19;;;21.64;54.36
46199;BME280;31928;52.104;10.030;2023-08-06T21:36:07;99526.78;;;21.61;53.87
46199;BME280;31928;52.104;10.030;2023-08-06T21:38:36;99534.47;;;21.59;54.75
46199;BME280;31928;52.104;10.030;2023-08-06T21:41:14;99532.25;;;21.61;53.54
46199;BME280;31928;52.104;10.030;2023-08-06T21:43:49;99531.25;;;21.57;53.69
46199;BME280;31928;52.104;10.030;2023-08-06T21:46:17;99528.19;;;21.45;54.71
46199;BME280;31928;52.104;10.030;2023-08-06T21:48:46;99533.44;;;21.41;54.86
46199;BME280;31928;52.104;10.030;2023-08-06T21:51:14;99531.63;;;21.37;54.56
46199;BME280;31928;52.104;10.030;2023-08-06T21:53:41;99540.69;;;21.32;55.11
46199;BME280;31928;52.104;10.030;2023-08-06T21:56:09;99549.00;;;21.27;55.35
46199;BME280;31928;52.104;10.030;2023-08-06T21:58:50;99534.22;;;21.28;54.97
46199;BME280;31928;52.104;10.030;2023-08-06T22:01:18;99541.19;;;21.21;55.18
46199;BME280;31928;52.104;10.030;2023-08-06T22:03:45;99543.72;;;21.17;55.20
46199;BME280;31928;52.104;10.030;2023-08-06T22:06:12;99538.06;;;21.14;55.58
46199;BME280;31928;52.104;10.030;2023-08-06T22:08:40;99543.81;;;21.13;55.71
46199;BME280;31928;52.104;10.030;2023-08-06T22:11:07;99552.63;;;21.10;55.42
46199;BME280;31928;52.104;10.030;2023-08-06T22:13:34;99548.25;;;21.09;56.06
46199;BME280;31928;52.104;10.030;2023-08-06T22:16:05;99547.44;;;21.08;55.88
46199;BME280;31928;52.104;10.030;2023-08-06T22:18:32;99555.13;;;21.06;56.21
46199;BME280;31928;52.104;10.030;2023-08-06T22:20:59;99557.84;;;21.06;56.09
46199;BME280;31928;52.104;10.030;2023-08-06T22:23:26;99556.22;;;21.05;56.16
46199;BME280;31928;52.104;10.030;2023-08-06T22:25:52;99551.88;;;21.04;56.19
46199;BME280;31928;52.104;10.030;2023-08-06T22:28:20;99551.59;;;21.06;56.18
46199;BME280;31928;52.104;10.030;2023-08-06T22:30:47;99542.59;;;21.05;55.87
46199;BME280;31928;52.104;10.030;2023-08-06T22:33:14;99549.97;;;21.05;56.37
46199;BME280;31928;52.104;10.030;2023-08-06T22:35:41;99550.28;;;21.03;56.02
46199;BME280;31928;52.104;10.030;2023-08-06T22:38:07;99546.72;;;21.03;56.30
46199;BME280;31928;52.104;10.030;2023-08-06T22:40:34;99548.13;;;21.00;56.07
46199;BME280;31928;52.104;10.030;2023-08-06T22:43:01;99548.13;;;21.00;56.04
46199;BME280;31928;52.104;10.030;2023-08-06T22:45:28;99546.50;;;20.99;56.50
46199;BME280;31928;52.104;10.030;2023-08-06T22:47:54;99555.81;;;20.98;56.52
46199;BME280;31928;52.104;10.030;2023-08-06T22:50:21;99540.56;;;20.97;56.59
46199;BME280;31928;52.104;10.030;2023-08-06T22:52:48;99546.81;;;20.98;56.71
46199;BME280;31928;52.104;10.030;2023-08-06T22:55:14;99550.38;;;20.98;56.67
46199;BME280;31928;52.104;10.030;2023-08-06T22:58:01;99551.38;;;21.02;56.83
46199;BME280;31928;52.104;10.030;2023-08-06T23:00:28;99541.59;;;21.01;56.50
46199;BME280;31928;52.104;10.030;2023-08-06T23:02:55;99544.00;;;21.03;56.38
46199;BME280;31928;52.104;10.030;2023-08-06T23:05:35;99551.88;;;21.04;56.24
46199;BME280;31928;52.104;10.030;2023-08-06T23:08:02;99558.47;;;21.03;56.32
46199;BME280;31928;52.104;10.030;2023-08-06T23:10:29;99566.31;;;21.05;56.82
46199;BME280;31928;52.104;10.030;2023-08-06T23:12:55;99565.81;;;21.03;56.68
46199;BME280;31928;52.104;10.030;2023-08-06T23:15:22;99555.22;;;21.01;56.30
46199;BME280;31928;52.104;10.030;2023-08-06T23:17:49;99556.31;;;21.00;56.48
46199;BME280;31928;52.104;10.030;2023-08-06T23:20:15;99550.38;;;20.98;56.38
46199;BME280;31928;52.104;10.030;2023-08-06T23:22:42;99552.56;;;20.96;56.35
46199;BME280;31928;52.104;10.030;2023-08-06T23:25:09;99554.81;;;20.94;56.36
46199;BME280;31928;52.104;10.030;2023-08-06T23:27:35;99557.81;;;20.93;56.85
46199;BME280;31928;52.104;10.030;2023-08-06T23:30:02;99555.38;;;20.91;56.59
46199;BME280;31928;52.104;10.030;2023-08-06T23:32:30;99555.38;;;20.91;56.72
46199;BME280;31928;52.104;10.030;2023-08-06T23:34:58;99559.25;;;20.90;56.88
46199;BME280;31928;52.104;10.030;2023-08-06T23:37:25;99560.03;;;20.91;56.67
46199;BME280;31928;52.104;10.030;2023-08-06T23:39:51;99563.06;;;20.89;56.82
46199;BME280;31928;52.104;10.030;2023-08-06T23:42:22;99565.47;;;20.91;56.64
46199;BME280;31928;52.104;10.030;2023-08-06T23:44:50;99574.97;;;20.93;56.50
46199;BME280;31928;52.104;10.030;2023-08-06T23:47:17;99571.16;;;20.94;56.60
46199;BME280;31928;52.104;10.030;2023-08-06T23:49:44;99569.84;;;20.92;56.75
46199;BME280;31928;52.104;10.030;2023-08-06T23:52:11;99568.69;;;20.93;56.59
46199;BME280;31928;52.104;10.030;2023-08-06T23:54:37;99569.84;;;20.92;56.72
46199;BME280;31928;52.104;10.030;2023-08-06T23:57:06;99577.19;;;20.91;56.76
46199;BME280;31928;52.104;10.030;2023-08-06T23:59:33;99579.41;;;20.89;56.86
